Etusivu
METAR-TAF:

METAR-TAF

Lentoasemat :

Algona, Iowa, Yhdysvallat

Leveyspiiri: 43-05N, Pituuspiiri: 094-16W, korkeus merenpinnasta: 372 m

Tämänhetkinen sää

Tämä raportti tehtiin 29 minuuttia sitten, kello 09.35 UTC
Tuuli 17 kn etelästä
Lämpötila -6°C
Kosteus 79%
Ilmanpaine 1012 hPa
Näkyvyys: 16.1 km
Hajanaisia pilviä 7000 ft:n korkeudessa
Pilvistä 8000 ft:n korkeudessa

METAR: KAXA 130935Z AUTO 18017KT 10SM SCT070 OVC080 M06/M09 A2987 RMK A01

Aika: 04:04 (10:04 UTC)


TAF: puuttuu

Säähavainnot ja -ennusteet yli 4000 lentoasemalta (METAR- ja TAF-raportit).

Käytössä olevat sääasemat on merkitty karttaan keltaisilla ja punaisilla pisteillä.

Aseta hiiri pisteen päälle nähdäksesi sääaseman nimen.

Klikkaa sitten nähdäksesi säähavainnot ja -ennusteet.

Kartan vaihtaminen: klikkaa mustalla rastilla varustettuja vihreitä pisteitä, niin voit zoomata sisään; viivalla varustettua vihreää pistettä, niin voit zoomata ulos tai vihreitä nuolia, niin pääset viereisille kartoille.


METAR-TAF: